Paulding, Ohio
Current Conditions -  °F | °C
As of 3:53 PM on Saturday 22 Nov 2014 (Local Time) from KDFI Reporting Station
Light Rain Light Rain  
Wind Chill: 50°   Ceiling: 3800
Heat Index: 50°   Visibility: 9mi
Dew Point: 43°   Wind: 13mph
Humidity: 77%   Direction: 220°SW
Pressure: 29.99"   Gusts: 21mph
Location:  41.14°N, 84.58°W
Report Text: KDFI 222053Z AUTO 22011G18KT 9SM -RA OVC038 10/06 A2999 RMK AO2 RAE1956B21E31B51 SLP160 P0000 60002 T01000061 58019
Loading
Personal Weather Stations






























Interactive Weather Map New forecast layout! Learn more

10-Day Weather Forecast

Advertisements
Track Severe Weather on mobile